createdAt,value
2023-04-20T00:02:42.352Z,8.32
2023-04-20T00:07:48.582Z,8.37
2023-04-20T00:12:54.221Z,8.45
2023-04-20T00:17:59.701Z,8.51
2023-04-20T00:23:05.628Z,8.52
2023-04-20T00:28:11.101Z,8.56
2023-04-20T00:33:16.713Z,8.65
2023-04-20T00:38:22.524Z,8.72
2023-04-20T00:43:28.214Z,8.71
2023-04-20T00:48:34.314Z,8.71
2023-04-20T00:53:40.820Z,8.71
2023-04-20T00:58:47.023Z,8.73
2023-04-20T01:03:52.735Z,8.75
2023-04-20T01:08:58.354Z,8.70
2023-04-20T01:14:03.834Z,8.66
2023-04-20T01:19:10.091Z,8.68
2023-04-20T01:24:15.689Z,8.70
2023-04-20T01:29:21.150Z,8.72
2023-04-20T01:34:26.936Z,8.68
2023-04-20T01:39:33.028Z,8.63
2023-04-20T01:44:39.055Z,8.66
2023-04-20T01:49:45.160Z,8.71
2023-04-20T01:54:50.736Z,8.76
2023-04-20T01:59:56.300Z,8.74
2023-04-20T02:05:01.824Z,8.70
2023-04-20T02:10:08.614Z,8.67
2023-04-20T02:15:14.222Z,8.66
2023-04-20T02:20:20.388Z,8.65
2023-04-20T02:25:25.896Z,8.62
2023-04-20T02:30:31.639Z,8.57
2023-04-20T02:35:37.050Z,8.57
2023-04-20T02:40:42.982Z,8.59
2023-04-20T02:45:48.879Z,8.57
2023-04-20T02:50:57.752Z,8.55
2023-04-20T02:56:06.050Z,8.47
2023-04-20T03:01:21.051Z,8.43
2023-04-20T03:06:28.426Z,8.41
2023-04-20T03:11:35.531Z,8.36
2023-04-20T03:16:42.274Z,8.30
2023-04-20T03:21:49.144Z,8.24
2023-04-20T03:26:55.185Z,8.28
2023-04-20T03:32:12.446Z,8.33
2023-04-20T03:37:18.159Z,8.34
2023-04-20T03:42:26.003Z,8.30
2023-04-20T03:47:34.172Z,8.23
2023-04-20T03:52:39.634Z,8.18
2023-04-20T03:57:45.306Z,8.18
2023-04-20T04:02:51.075Z,8.17
2023-04-20T04:08:03.355Z,8.14
2023-04-20T04:13:09.763Z,8.20
2023-04-20T04:18:15.606Z,8.29
2023-04-20T04:23:21.725Z,8.40
2023-04-20T04:28:33.002Z,8.45
2023-04-20T04:33:50.361Z,8.50
2023-04-20T04:39:06.678Z,8.62
2023-04-20T04:44:12.195Z,8.76
2023-04-20T04:49:18.835Z,8.86
2023-04-20T04:54:24.742Z,8.95
2023-04-20T04:59:31.028Z,9.03
2023-04-20T05:04:36.628Z,9.18
2023-04-20T05:09:42.737Z,9.42
2023-04-20T05:14:48.512Z,9.67
2023-04-20T05:19:54.447Z,9.85
2023-04-20T05:25:00.223Z,10.58
2023-04-20T05:35:19.177Z,11.43
2023-04-20T05:40:25.056Z,11.39
2023-04-20T05:45:32.917Z,11.30
2023-04-20T05:50:38.710Z,11.25
2023-04-20T05:55:44.217Z,11.32
2023-04-20T06:00:49.747Z,11.62
2023-04-20T06:05:55.353Z,12.82
2023-04-20T06:11:01.380Z,13.22
2023-04-20T06:16:09.830Z,13.47
2023-04-20T06:21:17.333Z,13.85
2023-04-20T06:26:23.325Z,14.78
2023-04-20T06:31:29.569Z,16.55
2023-04-20T06:36:35.039Z,19.31
2023-04-20T06:41:40.701Z,22.43
2023-04-20T06:46:46.371Z,24.13
2023-04-20T06:51:51.910Z,25.22
2023-04-20T06:56:57.829Z,26.48
2023-04-20T07:02:03.329Z,27.09
2023-04-20T07:07:08.897Z,26.90
2023-04-20T07:12:15.897Z,27.10
2023-04-20T07:17:21.413Z,28.36
2023-04-20T07:22:26.987Z,29.09
2023-04-20T07:27:36.671Z,27.86
2023-04-20T07:32:42.389Z,27.62
2023-04-20T07:37:48.046Z,28.36
2023-04-20T07:42:53.473Z,30.27
2023-04-20T07:48:01.572Z,31.55
2023-04-20T07:53:07.326Z,31.68
2023-04-20T07:58:14.112Z,31.98
2023-04-20T08:03:19.812Z,32.45
2023-04-20T08:08:25.858Z,32.71
2023-04-20T08:13:32.261Z,30.49
2023-04-20T08:18:37.753Z,28.32
2023-04-20T08:23:43.416Z,26.19
2023-04-20T08:28:48.854Z,25.46
2023-04-20T08:33:54.479Z,25.54
2023-04-20T08:39:08.060Z,24.89
2023-04-20T08:44:13.633Z,24.78
2023-04-20T08:49:20.016Z,24.86
2023-04-20T08:54:25.997Z,25.37
2023-04-20T08:59:33.041Z,26.44
2023-04-20T09:04:39.248Z,27.17
2023-04-20T09:09:55.728Z,27.13
2023-04-20T09:15:01.652Z,28.25
2023-04-20T09:20:09.288Z,28.03
2023-04-20T09:25:16.346Z,28.22
2023-04-20T09:30:22.088Z,28.95
2023-04-20T09:35:27.966Z,29.43
2023-04-20T09:40:33.906Z,29.87
2023-04-20T09:45:40.685Z,30.48
2023-04-20T09:50:51.134Z,30.57
2023-04-20T09:55:58.440Z,29.59
2023-04-20T10:01:03.994Z,29.34
2023-04-20T10:06:20.478Z,29.35
2023-04-20T10:11:40.549Z,29.06
2023-04-20T10:17:01.240Z,27.26
2023-04-20T10:22:08.218Z,26.50
2023-04-20T10:27:21.350Z,26.61
2023-04-20T10:32:29.475Z,27.58
2023-04-20T10:37:35.977Z,27.44
2023-04-20T10:42:45.306Z,27.32
2023-04-20T10:47:50.879Z,27.59
2023-04-20T10:52:56.405Z,27.48
2023-04-20T10:58:01.752Z,27.21
2023-04-20T11:03:11.414Z,26.09
2023-04-20T11:08:17.037Z,25.60
2023-04-20T11:13:25.540Z,26.04
2023-04-20T11:18:32.449Z,26.58
2023-04-20T11:23:42.018Z,26.93
2023-04-20T11:28:56.326Z,26.77
2023-04-20T11:34:02.875Z,26.52
2023-04-20T11:39:12.986Z,26.07
2023-04-20T11:44:20.933Z,26.46
2023-04-20T11:49:28.082Z,26.08
2023-04-20T11:54:35.141Z,25.54
2023-04-20T11:59:42.912Z,25.20
2023-04-20T12:04:48.570Z,24.84
2023-04-20T12:09:54.308Z,24.45
2023-04-20T12:14:59.814Z,23.60
2023-04-20T12:20:12.247Z,23.01
2023-04-20T12:25:18.058Z,23.57
2023-04-20T12:30:23.696Z,23.75
2023-04-20T12:35:29.296Z,22.94
2023-04-20T12:40:34.929Z,22.04
2023-04-20T12:45:40.452Z,21.66
2023-04-20T12:50:45.797Z,22.39
2023-04-20T12:55:57.864Z,22.48
2023-04-20T13:01:09.458Z,21.91
2023-04-20T13:06:16.126Z,21.44
2023-04-20T13:11:22.116Z,21.09
2023-04-20T13:16:28.656Z,20.83
2023-04-20T13:21:34.189Z,20.67
2023-04-20T13:26:40.224Z,20.77
2023-04-20T13:31:47.725Z,20.93
2023-04-20T13:36:53.641Z,21.17
2023-04-20T13:41:59.361Z,21.06
2023-04-20T13:47:04.919Z,20.68
2023-04-20T13:52:10.817Z,20.39
2023-04-20T13:57:16.620Z,20.19
2023-04-20T14:02:22.139Z,20.03
2023-04-20T14:07:28.402Z,20.20
2023-04-20T14:12:34.237Z,20.64
2023-04-20T14:17:39.918Z,20.91
2023-04-20T14:22:45.436Z,20.85
2023-04-20T14:27:50.838Z,20.56
2023-04-20T14:32:58.039Z,20.11
2023-04-20T14:38:03.828Z,19.85
2023-04-20T14:43:09.351Z,19.87
2023-04-20T14:48:15.041Z,20.00
2023-04-20T14:53:22.344Z,20.25
2023-04-20T14:58:29.291Z,20.16
2023-04-20T15:03:35.046Z,19.77
2023-04-20T15:08:40.926Z,19.53
2023-04-20T15:13:47.129Z,19.36
2023-04-20T15:18:54.683Z,19.24
2023-04-20T15:24:00.258Z,19.23
2023-04-20T15:29:05.787Z,19.34
2023-04-20T15:34:15.076Z,19.43
2023-04-20T15:39:20.902Z,19.50
2023-04-20T15:44:27.546Z,19.55
2023-04-20T15:49:35.785Z,19.47
2023-04-20T15:54:41.281Z,19.34
2023-04-20T15:59:46.666Z,19.16
2023-04-20T16:04:52.352Z,18.97
2023-04-20T16:09:58.105Z,18.70
2023-04-20T16:15:04.390Z,18.45
2023-04-20T16:20:11.978Z,18.23
2023-04-20T16:25:23.027Z,17.99
2023-04-20T16:30:29.465Z,17.79
2023-04-20T16:35:34.878Z,17.58
2023-04-20T16:40:42.404Z,17.35
2023-04-20T16:45:47.961Z,17.21
2023-04-20T16:50:53.697Z,17.07
2023-04-20T16:55:59.277Z,16.92
2023-04-20T17:01:05.379Z,16.79
2023-04-20T17:06:11.223Z,16.65
2023-04-20T17:11:19.262Z,16.48
2023-04-20T17:16:24.699Z,16.38
2023-04-20T17:21:30.733Z,16.30
2023-04-20T17:26:36.077Z,16.20
2023-04-20T17:31:41.611Z,16.07
2023-04-20T17:36:47.038Z,15.95
2023-04-20T17:41:52.342Z,15.82
2023-04-20T17:46:59.334Z,15.65
2023-04-20T17:52:05.195Z,15.42
2023-04-20T17:57:10.788Z,15.22
2023-04-20T18:02:16.726Z,14.98
2023-04-20T18:07:22.597Z,14.74
2023-04-20T18:12:33.907Z,14.55
2023-04-20T18:17:40.478Z,14.35
2023-04-20T18:22:50.941Z,14.15
2023-04-20T18:27:56.659Z,13.89
2023-04-20T18:33:02.939Z,13.58
2023-04-20T18:38:08.804Z,13.22
2023-04-20T18:43:14.455Z,12.89
2023-04-20T18:48:20.201Z,12.54
2023-04-20T18:53:25.790Z,12.25
2023-04-20T18:58:32.551Z,12.02
2023-04-20T19:03:38.460Z,11.90
2023-04-20T19:08:43.909Z,11.80
2023-04-20T19:13:49.442Z,11.73
2023-04-20T19:18:56.700Z,11.65
2023-04-20T19:24:02.498Z,11.65
2023-04-20T19:29:07.838Z,11.62
2023-04-20T19:34:13.501Z,11.54
2023-04-20T19:39:19.724Z,11.45
2023-04-20T19:44:25.710Z,11.44
2023-04-20T19:49:31.576Z,11.39
2023-04-20T19:54:37.034Z,11.30
2023-04-20T19:59:42.788Z,11.19
2023-04-20T20:04:49.568Z,11.05
2023-04-20T20:09:55.411Z,10.92
2023-04-20T20:15:10.026Z,10.76
2023-04-20T20:20:15.639Z,10.60
2023-04-20T20:25:21.099Z,10.47
2023-04-20T20:30:26.558Z,10.36
2023-04-20T20:35:33.372Z,10.33
2023-04-20T20:40:42.427Z,10.29
2023-04-20T20:45:47.836Z,10.28
2023-04-20T20:50:53.355Z,10.27
2023-04-20T20:55:58.909Z,10.22
2023-04-20T21:01:04.743Z,10.19
2023-04-20T21:10:02.464Z,10.11
2023-04-20T21:15:10.343Z,10.06
2023-04-20T21:20:16.113Z,10.04
2023-04-20T21:25:21.815Z,9.99
2023-04-20T21:30:28.329Z,9.94
2023-04-20T21:35:33.740Z,9.91
2023-04-20T21:40:39.570Z,9.91
2023-04-20T21:45:45.449Z,9.87
2023-04-20T21:50:50.884Z,9.82
2023-04-20T21:55:56.418Z,9.78
2023-04-20T22:01:01.821Z,9.74
2023-04-20T22:06:07.975Z,9.69
2023-04-20T22:11:14.240Z,9.65
2023-04-20T22:16:21.209Z,9.61
2023-04-20T22:21:26.792Z,9.56
2023-04-20T22:26:32.293Z,9.50
2023-04-20T22:31:38.109Z,9.42
2023-04-20T22:36:43.743Z,9.33
2023-04-20T22:41:49.261Z,9.22
2023-04-20T22:46:55.024Z,9.11
2023-04-20T22:52:00.509Z,9.01
2023-04-20T22:57:06.432Z,8.94
2023-04-20T23:02:12.253Z,8.86
2023-04-20T23:07:19.544Z,8.79
2023-04-20T23:12:26.393Z,8.72
2023-04-20T23:17:32.438Z,8.63
2023-04-20T23:22:37.923Z,8.51
2023-04-20T23:27:43.348Z,8.38
2023-04-20T23:32:48.726Z,8.28
2023-04-20T23:37:55.637Z,8.20
2023-04-20T23:43:01.410Z,8.11
2023-04-20T23:48:07.637Z,8.00
2023-04-20T23:53:13.062Z,7.89
2023-04-20T23:58:19.633Z,7.77
